sensor_id;sensor_type;location;lat;lon;timestamp;P1;durP1;ratioP1;P2;durP2;ratioP2
16450;SDS011;12243;42.708;23.310;2024-03-23T00:53:28;12.60;;;8.35;;
16450;SDS011;12243;42.708;23.310;2024-03-23T00:55:54;16.17;;;9.80;;
16450;SDS011;12243;42.708;23.310;2024-03-23T00:58:21;15.03;;;9.23;;
16450;SDS011;12243;42.708;23.310;2024-03-23T01:00:47;11.80;;;8.33;;
16450;SDS011;12243;42.708;23.310;2024-03-23T01:03:14;10.33;;;7.63;;
16450;SDS011;12243;42.708;23.310;2024-03-23T01:05:40;13.77;;;8.47;;
16450;SDS011;12243;42.708;23.310;2024-03-23T01:08:07;11.20;;;8.13;;
16450;SDS011;12243;42.708;23.310;2024-03-23T01:10:34;12.43;;;8.10;;
16450;SDS011;12243;42.708;23.310;2024-03-23T01:13:01;15.03;;;9.50;;
16450;SDS011;12243;42.708;23.310;2024-03-23T01:15:26;13.33;;;8.60;;
16450;SDS011;12243;42.708;23.310;2024-03-23T01:17:53;18.33;;;8.80;;
16450;SDS011;12243;42.708;23.310;2024-03-23T01:20:19;13.47;;;8.50;;
16450;SDS011;12243;42.708;23.310;2024-03-23T01:22:46;13.37;;;8.10;;
16450;SDS011;12243;42.708;23.310;2024-03-23T01:25:12;12.23;;;7.93;;
16450;SDS011;12243;42.708;23.310;2024-03-23T01:27:40;13.00;;;8.77;;
16450;SDS011;12243;42.708;23.310;2024-03-23T01:30:06;14.73;;;8.23;;
16450;SDS011;12243;42.708;23.310;2024-03-23T01:32:34;11.40;;;8.23;;
16450;SDS011;12243;42.708;23.310;2024-03-23T01:34:59;15.83;;;9.63;;
16450;SDS011;12243;42.708;23.310;2024-03-23T01:37:26;14.47;;;9.07;;
16450;SDS011;12243;42.708;23.310;2024-03-23T01:39:52;16.87;;;9.90;;
16450;SDS011;12243;42.708;23.310;2024-03-23T01:42:19;13.97;;;9.03;;
16450;SDS011;12243;42.708;23.310;2024-03-23T01:44:47;12.33;;;8.70;;
16450;SDS011;12243;42.708;23.310;2024-03-23T01:47:14;16.20;;;8.83;;
16450;SDS011;12243;42.708;23.310;2024-03-23T01:49:40;14.70;;;9.60;;
16450;SDS011;12243;42.708;23.310;2024-03-23T01:52:07;14.40;;;9.20;;
16450;SDS011;12243;42.708;23.310;2024-03-23T01:54:34;13.63;;;9.40;;
16450;SDS011;12243;42.708;23.310;2024-03-23T01:57:02;12.30;;;8.63;;
16450;SDS011;12243;42.708;23.310;2024-03-23T01:59:28;16.43;;;9.73;;
16450;SDS011;12243;42.708;23.310;2024-03-23T02:01:56;16.80;;;10.17;;
16450;SDS011;12243;42.708;23.310;2024-03-23T02:04:22;14.10;;;9.27;;
16450;SDS011;12243;42.708;23.310;2024-03-23T02:06:49;15.07;;;9.07;;
16450;SDS011;12243;42.708;23.310;2024-03-23T02:09:15;15.33;;;9.40;;
16450;SDS011;12243;42.708;23.310;2024-03-23T02:11:42;17.43;;;8.63;;
16450;SDS011;12243;42.708;23.310;2024-03-23T02:14:08;19.93;;;9.60;;
16450;SDS011;12243;42.708;23.310;2024-03-23T02:16:35;15.33;;;9.83;;
16450;SDS011;12243;42.708;23.310;2024-03-23T02:19:02;12.87;;;9.07;;
16450;SDS011;12243;42.708;23.310;2024-03-23T02:21:29;14.03;;;8.90;;
16450;SDS011;12243;42.708;23.310;2024-03-23T02:23:58;14.23;;;9.43;;
16450;SDS011;12243;42.708;23.310;2024-03-23T02:26:25;15.23;;;9.90;;
16450;SDS011;12243;42.708;23.310;2024-03-23T02:28:51;13.90;;;9.47;;
16450;SDS011;12243;42.708;23.310;2024-03-23T02:31:18;11.37;;;8.23;;
16450;SDS011;12243;42.708;23.310;2024-03-23T02:33:44;11.83;;;8.03;;
16450;SDS011;12243;42.708;23.310;2024-03-23T02:36:11;11.60;;;8.10;;
16450;SDS011;12243;42.708;23.310;2024-03-23T02:38:36;12.30;;;9.57;;
16450;SDS011;12243;42.708;23.310;2024-03-23T02:41:05;13.13;;;9.23;;
16450;SDS011;12243;42.708;23.310;2024-03-23T02:43:31;15.53;;;8.50;;
16450;SDS011;12243;42.708;23.310;2024-03-23T02:45:58;13.27;;;8.43;;
16450;SDS011;12243;42.708;23.310;2024-03-23T02:48:23;15.23;;;8.23;;
16450;SDS011;12243;42.708;23.310;2024-03-23T02:50:50;14.73;;;7.93;;
16450;SDS011;12243;42.708;23.310;2024-03-23T02:53:16;11.47;;;7.93;;
16450;SDS011;12243;42.708;23.310;2024-03-23T02:55:43;10.67;;;7.90;;
16450;SDS011;12243;42.708;23.310;2024-03-23T02:58:10;11.27;;;7.43;;
16450;SDS011;12243;42.708;23.310;2024-03-23T03:00:37;11.47;;;7.33;;
16450;SDS011;12243;42.708;23.310;2024-03-23T03:03:03;11.73;;;7.30;;
16450;SDS011;12243;42.708;23.310;2024-03-23T03:05:32;9.53;;;6.87;;
16450;SDS011;12243;42.708;23.310;2024-03-23T03:07:58;13.90;;;7.50;;
16450;SDS011;12243;42.708;23.310;2024-03-23T03:10:25;12.80;;;7.10;;
16450;SDS011;12243;42.708;23.310;2024-03-23T03:12:51;11.40;;;7.30;;
16450;SDS011;12243;42.708;23.310;2024-03-23T03:15:19;10.83;;;7.30;;
16450;SDS011;12243;42.708;23.310;2024-03-23T03:17:45;12.13;;;7.10;;
16450;SDS011;12243;42.708;23.310;2024-03-23T03:20:12;8.20;;;6.83;;
16450;SDS011;12243;42.708;23.310;2024-03-23T03:22:39;8.97;;;6.40;;
16450;SDS011;12243;42.708;23.310;2024-03-23T03:25:06;10.97;;;6.23;;
16450;SDS011;12243;42.708;23.310;2024-03-23T03:27:32;8.33;;;6.30;;
16450;SDS011;12243;42.708;23.310;2024-03-23T03:29:59;8.10;;;6.20;;
16450;SDS011;12243;42.708;23.310;2024-03-23T03:32:29;10.10;;;6.40;;
16450;SDS011;12243;42.708;23.310;2024-03-23T03:34:56;8.53;;;6.60;;
16450;SDS011;12243;42.708;23.310;2024-03-23T03:37:22;11.20;;;6.40;;
16450;SDS011;12243;42.708;23.310;2024-03-23T03:39:49;9.47;;;6.23;;
16450;SDS011;12243;42.708;23.310;2024-03-23T03:42:15;10.67;;;6.57;;
16450;SDS011;12243;42.708;23.310;2024-03-23T03:44:42;8.17;;;6.33;;
16450;SDS011;12243;42.708;23.310;2024-03-23T03:47:07;10.67;;;6.53;;
16450;SDS011;12243;42.708;23.310;2024-03-23T03:49:36;9.10;;;7.00;;
16450;SDS011;12243;42.708;23.310;2024-03-23T03:52:02;9.13;;;6.57;;
16450;SDS011;12243;42.708;23.310;2024-03-23T03:54:29;8.77;;;6.50;;
16450;SDS011;12243;42.708;23.310;2024-03-23T03:56:55;10.27;;;6.80;;
16450;SDS011;12243;42.708;23.310;2024-03-23T03:59:22;8.47;;;6.57;;
16450;SDS011;12243;42.708;23.310;2024-03-23T04:01:47;12.53;;;7.23;;
16450;SDS011;12243;42.708;23.310;2024-03-23T04:04:14;12.37;;;6.80;;
16450;SDS011;12243;42.708;23.310;2024-03-23T04:06:43;7.93;;;6.37;;
16450;SDS011;12243;42.708;23.310;2024-03-23T04:09:10;11.17;;;7.13;;
16450;SDS011;12243;42.708;23.310;2024-03-23T04:11:36;13.77;;;6.97;;
16450;SDS011;12243;42.708;23.310;2024-03-23T04:14:04;16.37;;;8.13;;
16450;SDS011;12243;42.708;23.310;2024-03-23T04:16:31;12.80;;;7.30;;
16450;SDS011;12243;42.708;23.310;2024-03-23T04:19:00;9.57;;;6.93;;
16450;SDS011;12243;42.708;23.310;2024-03-23T04:21:25;9.57;;;7.27;;
16450;SDS011;12243;42.708;23.310;2024-03-23T04:23:54;13.93;;;8.17;;
16450;SDS011;12243;42.708;23.310;2024-03-23T04:26:20;8.53;;;6.87;;
16450;SDS011;12243;42.708;23.310;2024-03-23T04:28:46;11.53;;;7.83;;
16450;SDS011;12243;42.708;23.310;2024-03-23T04:31:12;11.40;;;7.63;;
16450;SDS011;12243;42.708;23.310;2024-03-23T04:33:39;14.20;;;11.17;;
16450;SDS011;12243;42.708;23.310;2024-03-23T04:36:05;13.40;;;8.87;;
16450;SDS011;12243;42.708;23.310;2024-03-23T04:38:32;12.77;;;7.63;;
16450;SDS011;12243;42.708;23.310;2024-03-23T04:41:00;13.30;;;9.17;;
16450;SDS011;12243;42.708;23.310;2024-03-23T04:43:28;14.37;;;9.03;;
16450;SDS011;12243;42.708;23.310;2024-03-23T04:45:55;14.77;;;8.20;;
16450;SDS011;12243;42.708;23.310;2024-03-23T04:48:22;12.00;;;8.20;;
16450;SDS011;12243;42.708;23.310;2024-03-23T04:50:54;13.57;;;8.97;;
16450;SDS011;12243;42.708;23.310;2024-03-23T04:53:22;14.13;;;9.30;;
16450;SDS011;12243;42.708;23.310;2024-03-23T04:55:54;17.03;;;10.70;;
16450;SDS011;12243;42.708;23.310;2024-03-23T04:58:23;14.57;;;9.73;;
16450;SDS011;12243;42.708;23.310;2024-03-23T05:00:52;24.60;;;9.60;;
16450;SDS011;12243;42.708;23.310;2024-03-23T05:03:20;10.80;;;7.20;;
16450;SDS011;12243;42.708;23.310;2024-03-23T05:05:46;13.13;;;7.50;;
16450;SDS011;12243;42.708;23.310;2024-03-23T05:08:13;11.27;;;7.87;;
16450;SDS011;12243;42.708;23.310;2024-03-23T05:10:39;14.00;;;9.00;;
16450;SDS011;12243;42.708;23.310;2024-03-23T05:13:07;12.23;;;8.30;;
16450;SDS011;12243;42.708;23.310;2024-03-23T05:15:34;14.47;;;7.43;;
16450;SDS011;12243;42.708;23.310;2024-03-23T05:18:01;10.53;;;6.60;;
16450;SDS011;12243;42.708;23.310;2024-03-23T05:20:27;13.77;;;6.50;;
16450;SDS011;12243;42.708;23.310;2024-03-23T05:22:54;9.73;;;6.53;;
16450;SDS011;12243;42.708;23.310;2024-03-23T05:25:20;13.37;;;7.47;;
16450;SDS011;12243;42.708;23.310;2024-03-23T05:27:48;17.67;;;8.43;;
16450;SDS011;12243;42.708;23.310;2024-03-23T05:30:14;16.13;;;10.00;;
16450;SDS011;12243;42.708;23.310;2024-03-23T05:32:42;14.97;;;8.43;;
16450;SDS011;12243;42.708;23.310;2024-03-23T05:35:09;19.93;;;11.73;;
16450;SDS011;12243;42.708;23.310;2024-03-23T05:37:36;63.10;;;28.80;;
16450;SDS011;12243;42.708;23.310;2024-03-23T05:40:02;15.40;;;8.40;;
16450;SDS011;12243;42.708;23.310;2024-03-23T05:42:30;10.17;;;6.80;;
16450;SDS011;12243;42.708;23.310;2024-03-23T05:44:55;20.37;;;9.37;;
16450;SDS011;12243;42.708;23.310;2024-03-23T05:47:23;8.93;;;6.50;;
16450;SDS011;12243;42.708;23.310;2024-03-23T05:49:51;6.97;;;6.27;;
16450;SDS011;12243;42.708;23.310;2024-03-23T05:52:18;10.90;;;6.07;;
16450;SDS011;12243;42.708;23.310;2024-03-23T05:54:46;10.13;;;6.20;;
16450;SDS011;12243;42.708;23.310;2024-03-23T05:57:13;11.07;;;6.70;;
16450;SDS011;12243;42.708;23.310;2024-03-23T05:59:40;10.60;;;6.70;;
16450;SDS011;12243;42.708;23.310;2024-03-23T06:02:05;9.67;;;6.60;;
16450;SDS011;12243;42.708;23.310;2024-03-23T06:04:35;9.33;;;6.27;;
16450;SDS011;12243;42.708;23.310;2024-03-23T06:07:03;10.93;;;6.73;;
16450;SDS011;12243;42.708;23.310;2024-03-23T06:09:31;11.07;;;7.87;;
16450;SDS011;12243;42.708;23.310;2024-03-23T06:11:57;11.53;;;9.20;;
16450;SDS011;12243;42.708;23.310;2024-03-23T06:14:24;10.37;;;7.23;;
16450;SDS011;12243;42.708;23.310;2024-03-23T06:16:50;10.50;;;7.80;;
16450;SDS011;12243;42.708;23.310;2024-03-23T06:19:16;13.30;;;7.63;;
16450;SDS011;12243;42.708;23.310;2024-03-23T06:21:43;11.23;;;7.40;;
16450;SDS011;12243;42.708;23.310;2024-03-23T06:24:12;8.97;;;7.43;;
16450;SDS011;12243;42.708;23.310;2024-03-23T06:26:38;10.07;;;7.17;;
16450;SDS011;12243;42.708;23.310;2024-03-23T06:29:05;11.93;;;7.40;;
16450;SDS011;12243;42.708;23.310;2024-03-23T06:31:30;12.87;;;8.20;;
16450;SDS011;12243;42.708;23.310;2024-03-23T06:33:57;14.17;;;7.97;;
16450;SDS011;12243;42.708;23.310;2024-03-23T06:36:23;14.90;;;8.63;;
16450;SDS011;12243;42.708;23.310;2024-03-23T06:38:50;13.67;;;8.00;;
16450;SDS011;12243;42.708;23.310;2024-03-23T06:41:17;19.73;;;9.83;;
16450;SDS011;12243;42.708;23.310;2024-03-23T06:43:45;19.07;;;10.03;;
16450;SDS011;12243;42.708;23.310;2024-03-23T06:46:11;16.00;;;9.60;;
16450;SDS011;12243;42.708;23.310;2024-03-23T06:48:38;12.57;;;8.13;;
16450;SDS011;12243;42.708;23.310;2024-03-23T06:51:05;11.30;;;8.43;;
16450;SDS011;12243;42.708;23.310;2024-03-23T06:53:31;11.83;;;8.43;;
16450;SDS011;12243;42.708;23.310;2024-03-23T06:55:58;15.07;;;9.03;;
16450;SDS011;12243;42.708;23.310;2024-03-23T06:58:26;12.73;;;9.43;;
16450;SDS011;12243;42.708;23.310;2024-03-23T07:00:52;25.80;;;14.07;;
16450;SDS011;12243;42.708;23.310;2024-03-23T07:03:18;16.33;;;10.63;;
16450;SDS011;12243;42.708;23.310;2024-03-23T07:05:46;11.67;;;8.90;;
16450;SDS011;12243;42.708;23.310;2024-03-23T07:08:12;16.07;;;9.43;;
16450;SDS011;12243;42.708;23.310;2024-03-23T07:10:44;18.70;;;8.93;;
16450;SDS011;12243;42.708;23.310;2024-03-23T07:13:09;12.07;;;8.57;;
16450;SDS011;12243;42.708;23.310;2024-03-23T07:15:39;13.57;;;9.03;;
16450;SDS011;12243;42.708;23.310;2024-03-23T07:18:05;17.83;;;8.40;;
16450;SDS011;12243;42.708;23.310;2024-03-23T07:20:31;13.33;;;9.17;;
16450;SDS011;12243;42.708;23.310;2024-03-23T07:22:57;15.50;;;8.60;;
16450;SDS011;12243;42.708;23.310;2024-03-23T07:25:24;16.10;;;8.93;;
16450;SDS011;12243;42.708;23.310;2024-03-23T07:27:52;13.60;;;8.07;;
16450;SDS011;12243;42.708;23.310;2024-03-23T07:30:19;18.13;;;9.17;;
16450;SDS011;12243;42.708;23.310;2024-03-23T07:32:47;16.90;;;9.70;;
16450;SDS011;12243;42.708;23.310;2024-03-23T07:35:13;18.60;;;10.20;;
16450;SDS011;12243;42.708;23.310;2024-03-23T07:37:39;19.03;;;13.77;;
16450;SDS011;12243;42.708;23.310;2024-03-23T07:40:07;19.87;;;10.50;;
16450;SDS011;12243;42.708;23.310;2024-03-23T07:42:34;20.20;;;9.87;;
16450;SDS011;12243;42.708;23.310;2024-03-23T07:45:01;13.50;;;9.17;;
16450;SDS011;12243;42.708;23.310;2024-03-23T07:47:27;16.60;;;10.87;;
16450;SDS011;12243;42.708;23.310;2024-03-23T07:49:55;36.77;;;21.37;;
16450;SDS011;12243;42.708;23.310;2024-03-23T07:52:21;13.30;;;8.87;;
16450;SDS011;12243;42.708;23.310;2024-03-23T07:54:48;12.17;;;9.07;;
16450;SDS011;12243;42.708;23.310;2024-03-23T07:57:14;17.20;;;9.20;;
16450;SDS011;12243;42.708;23.310;2024-03-23T07:59:41;17.50;;;9.60;;
16450;SDS011;12243;42.708;23.310;2024-03-23T08:02:06;20.57;;;9.40;;
16450;SDS011;12243;42.708;23.310;2024-03-23T08:04:33;16.20;;;8.87;;
16450;SDS011;12243;42.708;23.310;2024-03-23T08:07:00;14.03;;;8.60;;
16450;SDS011;12243;42.708;23.310;2024-03-23T08:09:27;15.00;;;9.60;;
16450;SDS011;12243;42.708;23.310;2024-03-23T08:11:53;15.53;;;9.10;;
16450;SDS011;12243;42.708;23.310;2024-03-23T08:14:20;24.60;;;13.13;;
16450;SDS011;12243;42.708;23.310;2024-03-23T08:16:46;25.80;;;15.00;;
16450;SDS011;12243;42.708;23.310;2024-03-23T08:19:14;16.17;;;9.30;;
16450;SDS011;12243;42.708;23.310;2024-03-23T08:21:40;15.43;;;9.40;;
16450;SDS011;12243;42.708;23.310;2024-03-23T08:24:09;13.67;;;9.10;;
16450;SDS011;12243;42.708;23.310;2024-03-23T08:26:34;13.40;;;8.80;;
16450;SDS011;12243;42.708;23.310;2024-03-23T08:29:02;14.53;;;8.43;;
16450;SDS011;12243;42.708;23.310;2024-03-23T08:31:28;13.43;;;9.30;;
16450;SDS011;12243;42.708;23.310;2024-03-23T08:33:56;17.17;;;9.27;;
16450;SDS011;12243;42.708;23.310;2024-03-23T08:36:21;26.30;;;13.23;;
16450;SDS011;12243;42.708;23.310;2024-03-23T08:38:49;15.23;;;9.43;;
16450;SDS011;12243;42.708;23.310;2024-03-23T08:41:20;20.70;;;12.77;;
16450;SDS011;12243;42.708;23.310;2024-03-23T08:43:47;16.80;;;9.70;;
16450;SDS011;12243;42.708;23.310;2024-03-23T08:46:13;19.33;;;9.17;;
16450;SDS011;12243;42.708;23.310;2024-03-23T08:48:42;13.20;;;9.57;;
16450;SDS011;12243;42.708;23.310;2024-03-23T08:51:09;12.93;;;8.83;;
16450;SDS011;12243;42.708;23.310;2024-03-23T08:53:37;20.00;;;9.33;;
16450;SDS011;12243;42.708;23.310;2024-03-23T08:56:04;14.43;;;9.07;;
16450;SDS011;12243;42.708;23.310;2024-03-23T08:58:34;13.10;;;9.73;;
16450;SDS011;12243;42.708;23.310;2024-03-23T09:01:03;13.60;;;9.33;;
16450;SDS011;12243;42.708;23.310;2024-03-23T09:03:30;21.00;;;12.17;;
16450;SDS011;12243;42.708;23.310;2024-03-23T09:05:56;14.73;;;10.17;;
16450;SDS011;12243;42.708;23.310;2024-03-23T09:08:24;12.83;;;10.00;;
16450;SDS011;12243;42.708;23.310;2024-03-23T09:10:50;15.27;;;9.30;;
16450;SDS011;12243;42.708;23.310;2024-03-23T09:13:18;17.77;;;10.10;;
16450;SDS011;12243;42.708;23.310;2024-03-23T09:15:49;11.53;;;9.73;;
16450;SDS011;12243;42.708;23.310;2024-03-23T09:18:21;15.73;;;10.63;;
16450;SDS011;12243;42.708;23.310;2024-03-23T09:20:47;16.47;;;9.80;;
16450;SDS011;12243;42.708;23.310;2024-03-23T09:23:14;13.63;;;9.10;;
16450;SDS011;12243;42.708;23.310;2024-03-23T09:25:40;15.30;;;9.93;;
16450;SDS011;12243;42.708;23.310;2024-03-23T09:28:07;13.17;;;8.93;;
16450;SDS011;12243;42.708;23.310;2024-03-23T09:30:34;13.13;;;9.73;;
16450;SDS011;12243;42.708;23.310;2024-03-23T09:33:03;16.07;;;9.77;;
16450;SDS011;12243;42.708;23.310;2024-03-23T09:35:29;13.90;;;10.33;;
16450;SDS011;12243;42.708;23.310;2024-03-23T09:37:56;16.15;;;10.30;;
16450;SDS011;12243;42.708;23.310;2024-03-23T09:40:23;17.93;;;9.60;;
16450;SDS011;12243;42.708;23.310;2024-03-23T09:42:50;22.03;;;10.57;;
16450;SDS011;12243;42.708;23.310;2024-03-23T09:45:17;20.27;;;9.90;;
16450;SDS011;12243;42.708;23.310;2024-03-23T09:47:48;51.57;;;32.80;;
16450;SDS011;12243;42.708;23.310;2024-03-23T09:50:18;15.63;;;11.20;;
16450;SDS011;12243;42.708;23.310;2024-03-23T09:52:45;17.95;;;11.18;;
16450;SDS011;12243;42.708;23.310;2024-03-23T09:55:12;12.80;;;9.30;;
16450;SDS011;12243;42.708;23.310;2024-03-23T09:57:39;15.27;;;10.50;;
16450;SDS011;12243;42.708;23.310;2024-03-23T10:00:06;13.07;;;10.50;;
16450;SDS011;12243;42.708;23.310;2024-03-23T10:02:33;14.30;;;10.17;;
16450;SDS011;12243;42.708;23.310;2024-03-23T10:05:00;13.05;;;9.60;;
16450;SDS011;12243;42.708;23.310;2024-03-23T10:07:28;10.15;;;8.57;;
16450;SDS011;12243;42.708;23.310;2024-03-23T10:09:55;16.25;;;9.27;;
16450;SDS011;12243;42.708;23.310;2024-03-23T10:12:22;15.30;;;8.38;;
16450;SDS011;12243;42.708;23.310;2024-03-23T10:14:51;11.77;;;9.10;;
16450;SDS011;12243;42.708;23.310;2024-03-23T10:17:18;11.00;;;9.15;;
16450;SDS011;12243;42.708;23.310;2024-03-23T10:19:45;15.35;;;9.00;;
16450;SDS011;12243;42.708;23.310;2024-03-23T10:22:13;15.10;;;10.07;;
16450;SDS011;12243;42.708;23.310;2024-03-23T10:24:42;14.02;;;8.98;;
16450;SDS011;12243;42.708;23.310;2024-03-23T10:27:08;12.07;;;8.48;;
16450;SDS011;12243;42.708;23.310;2024-03-23T10:29:35;9.95;;;8.95;;
16450;SDS011;12243;42.708;23.310;2024-03-23T10:32:07;15.80;;;10.02;;
16450;SDS011;12243;42.708;23.310;2024-03-23T10:34:35;16.20;;;9.45;;
16450;SDS011;12243;42.708;23.310;2024-03-23T10:37:02;10.93;;;9.82;;
16450;SDS011;12243;42.708;23.310;2024-03-23T10:39:33;11.55;;;8.32;;
16450;SDS011;12243;42.708;23.310;2024-03-23T10:42:01;13.75;;;8.13;;
16450;SDS011;12243;42.708;23.310;2024-03-23T10:44:29;15.43;;;8.45;;
16450;SDS011;12243;42.708;23.310;2024-03-23T10:46:56;10.85;;;7.40;;
16450;SDS011;12243;42.708;23.310;2024-03-23T10:49:26;10.07;;;7.95;;
16450;SDS011;12243;42.708;23.310;2024-03-23T10:51:55;9.45;;;7.30;;
16450;SDS011;12243;42.708;23.310;2024-03-23T10:54:24;11.75;;;7.45;;
16450;SDS011;12243;42.708;23.310;2024-03-23T10:56:51;10.00;;;6.80;;
16450;SDS011;12243;42.708;23.310;2024-03-23T10:59:22;12.07;;;7.63;;
16450;SDS011;12243;42.708;23.310;2024-03-23T11:01:55;8.70;;;7.18;;
16450;SDS011;12243;42.708;23.310;2024-03-23T11:04:29;11.45;;;6.63;;
16450;SDS011;12243;42.708;23.310;2024-03-23T11:06:55;11.45;;;7.10;;
16450;SDS011;12243;42.708;23.310;2024-03-23T11:12:29;8.02;;;6.78;;
16450;SDS011;12243;42.708;23.310;2024-03-23T11:15:01;12.10;;;7.75;;
16450;SDS011;12243;42.708;23.310;2024-03-23T11:17:29;10.82;;;6.93;;
16450;SDS011;12243;42.708;23.310;2024-03-23T11:19:56;11.98;;;6.93;;
16450;SDS011;12243;42.708;23.310;2024-03-23T11:22:42;11.48;;;8.15;;
16450;SDS011;12243;42.708;23.310;2024-03-23T11:25:13;10.70;;;6.60;;
16450;SDS011;12243;42.708;23.310;2024-03-23T11:27:43;13.48;;;7.72;;
16450;SDS011;12243;42.708;23.310;2024-03-23T11:30:16;13.93;;;7.22;;
16450;SDS011;12243;42.708;23.310;2024-03-23T11:32:43;8.88;;;6.53;;
16450;SDS011;12243;42.708;23.310;2024-03-23T11:35:11;11.85;;;6.38;;
16450;SDS011;12243;42.708;23.310;2024-03-23T11:38:00;9.70;;;5.63;;
16450;SDS011;12243;42.708;23.310;2024-03-23T11:40:28;6.43;;;5.15;;
16450;SDS011;12243;42.708;23.310;2024-03-23T11:42:55;8.95;;;5.65;;
16450;SDS011;12243;42.708;23.310;2024-03-23T11:45:24;6.57;;;5.78;;
16450;SDS011;12243;42.708;23.310;2024-03-23T11:48:01;8.55;;;4.88;;
16450;SDS011;12243;42.708;23.310;2024-03-23T11:50:28;12.05;;;7.65;;
16450;SDS011;12243;42.708;23.310;2024-03-23T11:53:05;9.10;;;5.47;;
16450;SDS011;12243;42.708;23.310;2024-03-23T11:55:42;9.73;;;6.22;;
16450;SDS011;12243;42.708;23.310;2024-03-23T11:58:13;11.10;;;5.18;;
16450;SDS011;12243;42.708;23.310;2024-03-23T12:00:41;7.82;;;5.30;;
16450;SDS011;12243;42.708;23.310;2024-03-23T12:03:08;8.75;;;5.55;;
16450;SDS011;12243;42.708;23.310;2024-03-23T12:05:35;5.95;;;5.20;;
16450;SDS011;12243;42.708;23.310;2024-03-23T12:08:16;7.63;;;6.07;;
16450;SDS011;12243;42.708;23.310;2024-03-23T12:10:47;9.90;;;5.10;;
16450;SDS011;12243;42.708;23.310;2024-03-23T12:13:19;9.15;;;5.78;;
16450;SDS011;12243;42.708;23.310;2024-03-23T12:15:47;10.50;;;5.65;;
16450;SDS011;12243;42.708;23.310;2024-03-23T12:18:16;11.65;;;6.47;;
16450;SDS011;12243;42.708;23.310;2024-03-23T12:20:42;5.53;;;4.97;;
16450;SDS011;12243;42.708;23.310;2024-03-23T12:23:09;7.05;;;5.13;;
16450;SDS011;12243;42.708;23.310;2024-03-23T12:25:39;5.90;;;5.30;;
16450;SDS011;12243;42.708;23.310;2024-03-23T12:28:06;7.07;;;5.85;;
16450;SDS011;12243;42.708;23.310;2024-03-23T12:30:33;9.68;;;4.75;;
16450;SDS011;12243;42.708;23.310;2024-03-23T12:33:03;7.38;;;4.85;;
16450;SDS011;12243;42.708;23.310;2024-03-23T12:35:29;7.72;;;4.40;;
16450;SDS011;12243;42.708;23.310;2024-03-23T12:37:56;5.90;;;4.20;;
16450;SDS011;12243;42.708;23.310;2024-03-23T12:40:22;7.80;;;4.03;;
16450;SDS011;12243;42.708;23.310;2024-03-23T12:42:49;9.88;;;4.65;;
16450;SDS011;12243;42.708;23.310;2024-03-23T12:45:14;5.35;;;4.07;;
16450;SDS011;12243;42.708;23.310;2024-03-23T12:47:42;5.43;;;3.90;;
16450;SDS011;12243;42.708;23.310;2024-03-23T12:50:09;6.03;;;3.80;;
16450;SDS011;12243;42.708;23.310;2024-03-23T12:52:36;6.43;;;3.80;;
16450;SDS011;12243;42.708;23.310;2024-03-23T12:55:02;5.35;;;2.90;;
16450;SDS011;12243;42.708;23.310;2024-03-23T12:57:30;2.30;;;2.20;;
16450;SDS011;12243;42.708;23.310;2024-03-23T12:59:56;2.55;;;2.35;;
16450;SDS011;12243;42.708;23.310;2024-03-23T13:02:23;1.80;;;1.70;;
16450;SDS011;12243;42.708;23.310;2024-03-23T13:04:49;2.60;;;1.90;;
16450;SDS011;12243;42.708;23.310;2024-03-23T13:07:18;2.13;;;1.80;;
16450;SDS011;12243;42.708;23.310;2024-03-23T13:09:45;1.73;;;1.67;;
16450;SDS011;12243;42.708;23.310;2024-03-23T13:12:12;1.88;;;1.77;;
16450;SDS011;12243;42.708;23.310;2024-03-23T13:14:38;3.72;;;1.92;;
16450;SDS011;12243;42.708;23.310;2024-03-23T13:17:05;1.65;;;1.55;;
16450;SDS011;12243;42.708;23.310;2024-03-23T13:19:31;1.63;;;1.52;;
16450;SDS011;12243;42.708;23.310;2024-03-23T13:21:58;2.03;;;1.80;;
16450;SDS011;12243;42.708;23.310;2024-03-23T13:24:26;3.63;;;3.30;;
16450;SDS011;12243;42.708;23.310;2024-03-23T13:26:55;2.20;;;2.00;;
16450;SDS011;12243;42.708;23.310;2024-03-23T13:29:21;2.00;;;1.90;;
16450;SDS011;12243;42.708;23.310;2024-03-23T13:31:49;3.65;;;1.60;;
16450;SDS011;12243;42.708;23.310;2024-03-23T13:34:16;2.22;;;2.00;;
16450;SDS011;12243;42.708;23.310;2024-03-23T13:36:43;2.92;;;1.70;;
16450;SDS011;12243;42.708;23.310;2024-03-23T13:39:10;1.77;;;1.75;;
16450;SDS011;12243;42.708;23.310;2024-03-23T13:41:42;2.10;;;1.77;;
16450;SDS011;12243;42.708;23.310;2024-03-23T13:44:09;1.83;;;1.30;;
16450;SDS011;12243;42.708;23.310;2024-03-23T13:46:36;1.75;;;1.65;;
16450;SDS011;12243;42.708;23.310;2024-03-23T13:49:03;1.90;;;1.80;;
16450;SDS011;12243;42.708;23.310;2024-03-23T13:51:30;2.55;;;2.33;;
16450;SDS011;12243;42.708;23.310;2024-03-23T13:53:56;1.67;;;1.67;;
16450;SDS011;12243;42.708;23.310;2024-03-23T13:56:26;2.40;;;2.30;;
16450;SDS011;12243;42.708;23.310;2024-03-23T13:58:55;1.98;;;1.88;;
16450;SDS011;12243;42.708;23.310;2024-03-23T14:01:23;2.28;;;2.17;;
16450;SDS011;12243;42.708;23.310;2024-03-23T14:03:49;2.33;;;2.13;;
16450;SDS011;12243;42.708;23.310;2024-03-23T14:06:16;2.30;;;2.08;;
16450;SDS011;12243;42.708;23.310;2024-03-23T14:08:42;2.10;;;2.00;;
16450;SDS011;12243;42.708;23.310;2024-03-23T14:11:09;2.90;;;2.70;;
16450;SDS011;12243;42.708;23.310;2024-03-23T14:13:35;2.35;;;2.22;;
16450;SDS011;12243;42.708;23.310;2024-03-23T14:16:05;2.42;;;2.17;;
16450;SDS011;12243;42.708;23.310;2024-03-23T14:18:31;2.88;;;2.38;;
16450;SDS011;12243;42.708;23.310;2024-03-23T14:20:58;2.42;;;2.28;;
16450;SDS011;12243;42.708;23.310;2024-03-23T14:23:25;3.00;;;2.47;;
16450;SDS011;12243;42.708;23.310;2024-03-23T14:25:52;3.38;;;2.10;;
16450;SDS011;12243;42.708;23.310;2024-03-23T14:28:19;2.38;;;2.28;;
16450;SDS011;12243;42.708;23.310;2024-03-23T14:30:47;4.28;;;2.30;;
16450;SDS011;12243;42.708;23.310;2024-03-23T14:33:14;3.85;;;2.25;;
16450;SDS011;12243;42.708;23.310;2024-03-23T14:35:41;3.80;;;2.78;;
16450;SDS011;12243;42.708;23.310;2024-03-23T14:38:09;2.78;;;2.50;;
16450;SDS011;12243;42.708;23.310;2024-03-23T14:40:36;3.08;;;2.78;;
16450;SDS011;12243;42.708;23.310;2024-03-23T14:43:02;2.25;;;2.15;;
16450;SDS011;12243;42.708;23.310;2024-03-23T14:45:29;2.80;;;2.60;;
16450;SDS011;12243;42.708;23.310;2024-03-23T14:47:54;2.80;;;2.60;;
16450;SDS011;12243;42.708;23.310;2024-03-23T14:50:24;3.38;;;3.00;;
16450;SDS011;12243;42.708;23.310;2024-03-23T14:52:50;3.15;;;2.92;;
16450;SDS011;12243;42.708;23.310;2024-03-23T14:55:17;2.75;;;2.55;;
16450;SDS011;12243;42.708;23.310;2024-03-23T14:57:43;2.65;;;2.45;;
16450;SDS011;12243;42.708;23.310;2024-03-23T15:00:10;3.10;;;2.90;;
16450;SDS011;12243;42.708;23.310;2024-03-23T15:02:37;3.17;;;2.88;;
16450;SDS011;12243;42.708;23.310;2024-03-23T15:05:05;4.55;;;3.10;;
16450;SDS011;12243;42.708;23.310;2024-03-23T15:07:36;3.28;;;2.90;;
16450;SDS011;12243;42.708;23.310;2024-03-23T15:10:04;5.00;;;3.03;;
16450;SDS011;12243;42.708;23.310;2024-03-23T15:12:30;5.63;;;2.80;;
16450;SDS011;12243;42.708;23.310;2024-03-23T15:14:59;4.32;;;3.70;;
16450;SDS011;12243;42.708;23.310;2024-03-23T15:17:25;5.85;;;3.28;;
16450;SDS011;12243;42.708;23.310;2024-03-23T15:19:52;4.05;;;2.70;;